Terminal Aerodrome Forecast
Issued by NWS

Home | Current Version | Previous Version | Text Only | Print | Product List | Glossary On
Versions: 1 2 3 4 5 6 7 8 9 10 11 12 13 14 15
573
FTUS46 KHNX 281120
TAFMER
TAF
KMER 281120Z 2812/2912 32013KT P6SM SKC
     FM281500 33020G26KT P6SM SKC
      TEMPO 2822/2902 33030G37KT
     FM290600 31012KT P6SM SKC=

USA.gov is the U.S. government's official web portal to all federal, state and local government web resources and services.